Aviation Digital Data Service (ADDS)

Output produced by METARs form (0010 UTC 23 March 2019)
found at http://www.aviationweather.gov/metar/data/
 
METAR text: FALE 230000Z VRB02KT 9999 FEW022 FEW044 19/18 Q1020 NOSIG
Conditions at: FALE (DURBAN SHAKA , ZA) observed 0000 UTC 23 March 2019
Temperature: 19.0°C (66°F)
Dewpoint: 18.0°C (64°F) [RH = 94%]
Pressure (altimeter): 30.12 inches Hg (1020.0 mb)
Winds: variable direction winds at 2 MPH (2 knots; 1.0 m/s)
Visibility: 6 or more miles (10+ km)
Ceiling: at least 12,000 feet AGL
Clouds: few clouds at 2200 feet AGL
few clouds at 4400 feet AGL
Weather: no significant weather observed at this time

METAR text: FALE 222300Z 00000KT 9999 FEW040 19/18 Q1021 NOSIG
Conditions at: FALE (DURBAN SHAKA , ZA) observed 2300 UTC 22 March 2019
Temperature: 19.0°C (66°F)
Dewpoint: 18.0°C (64°F) [RH = 94%]
Pressure (altimeter): 30.15 inches Hg (1021.0 mb)
Winds: calm
Visibility: 6 or more miles (10+ km)
Ceiling: at least 12,000 feet AGL
Clouds: few clouds at 4000 feet AGL
Weather: no significant weather observed at this time

METAR text: FALE 222200Z VRB01KT 9999 FEW040 19/18 Q1021 NOSIG
Conditions at: FALE (DURBAN SHAKA , ZA) observed 2200 UTC 22 March 2019
Temperature: 19.0°C (66°F)
Dewpoint: 18.0°C (64°F) [RH = 94%]
Pressure (altimeter): 30.15 inches Hg (1021.0 mb)
Winds: variable direction winds at 1 MPH (1 knots; 0.5 m/s)
Visibility: 6 or more miles (10+ km)
Ceiling: at least 12,000 feet AGL
Clouds: few clouds at 4000 feet AGL
Weather: no significant weather observed at this time

METAR text: FALE 222100Z VRB02KT 9999 FEW040 20/18 Q1022 NOSIG
Conditions at: FALE (DURBAN SHAKA , ZA) observed 2100 UTC 22 March 2019
Temperature: 20.0°C (68°F)
Dewpoint: 18.0°C (64°F) [RH = 88%]
Pressure (altimeter): 30.18 inches Hg (1022.0 mb)
Winds: variable direction winds at 2 MPH (2 knots; 1.0 m/s)
Visibility: 6 or more miles (10+ km)
Ceiling: at least 12,000 feet AGL
Clouds: few clouds at 4000 feet AGL
Weather: no significant weather observed at this time

METAR text: FALE 222000Z VRB01KT 9999 FEW040 20/19 Q1022 NOSIG
Conditions at: FALE (DURBAN SHAKA , ZA) observed 2000 UTC 22 March 2019
Temperature: 20.0°C (68°F)
Dewpoint: 19.0°C (66°F) [RH = 94%]
Pressure (altimeter): 30.18 inches Hg (1022.0 mb)
Winds: variable direction winds at 1 MPH (1 knots; 0.5 m/s)
Visibility: 6 or more miles (10+ km)
Ceiling: at least 12,000 feet AGL
Clouds: few clouds at 4000 feet AGL
Weather: no significant weather observed at this time

METAR text: FALE 221900Z 36004KT 9999 FEW040 20/19 Q1022 NOSIG
Conditions at: FALE (DURBAN SHAKA , ZA) observed 1900 UTC 22 March 2019
Temperature: 20.0°C (68°F)
Dewpoint: 19.0°C (66°F) [RH = 94%]
Pressure (altimeter): 30.18 inches Hg (1022.0 mb)
Winds: from the N (360 degrees) at 5 MPH (4 knots; 2.1 m/s)
Visibility: 6 or more miles (10+ km)
Ceiling: at least 12,000 feet AGL
Clouds: few clouds at 4000 feet AGL
Weather: no significant weather observed at this time

METAR text: FALE 221800Z 36004KT 9999 FEW040 20/19 Q1021 NOSIG
Conditions at: FALE (DURBAN SHAKA , ZA) observed 1800 UTC 22 March 2019
Temperature: 20.0°C (68°F)
Dewpoint: 19.0°C (66°F) [RH = 94%]
Pressure (altimeter): 30.15 inches Hg (1021.0 mb)
Winds: from the N (360 degrees) at 5 MPH (4 knots; 2.1 m/s)
Visibility: 6 or more miles (10+ km)
Ceiling: at least 12,000 feet AGL
Clouds: few clouds at 4000 feet AGL
Weather: no significant weather observed at this time

METAR text: FALE 221700Z 07004KT CAVOK 21/19 Q1020 NOSIG
Conditions at: FALE (DURBAN SHAKA , ZA) observed 1700 UTC 22 March 2019
Temperature: 21.0°C (70°F)
Dewpoint: 19.0°C (66°F) [RH = 88%]
Pressure (altimeter): 30.12 inches Hg (1020.0 mb)
Winds: from the ENE (70 degrees) at 5 MPH (4 knots; 2.1 m/s)
Visibility: 6 or more miles (10+ km)
Ceiling: ceiling and visibility are OK
Clouds: unknown
Weather: no significant weather observed at this time

METAR text: FALE 221600Z VRB02KT 9999 SCT049 22/20 Q1020 NOSIG
Conditions at: FALE (DURBAN SHAKA , ZA) observed 1600 UTC 22 March 2019
Temperature: 22.0°C (72°F)
Dewpoint: 20.0°C (68°F) [RH = 88%]
Pressure (altimeter): 30.12 inches Hg (1020.0 mb)
Winds: variable direction winds at 2 MPH (2 knots; 1.0 m/s)
Visibility: 6 or more miles (10+ km)
Ceiling: at least 12,000 feet AGL
Clouds: scattered clouds at 4900 feet AGL
Weather: no significant weather observed at this time

METAR text: FALE 221500Z 04006KT 9999 SCT049 23/19 Q1020 NOSIG
Conditions at: FALE (DURBAN SHAKA , ZA) observed 1500 UTC 22 March 2019
Temperature: 23.0°C (73°F)
Dewpoint: 19.0°C (66°F) [RH = 78%]
Pressure (altimeter): 30.12 inches Hg (1020.0 mb)
Winds: from the NE (40 degrees) at 7 MPH (6 knots; 3.1 m/s)
Visibility: 6 or more miles (10+ km)
Ceiling: at least 12,000 feet AGL
Clouds: scattered clouds at 4900 feet AGL
Weather: no significant weather observed at this time

METAR text: FALE 221400Z 04006KT 9999 SCT010 BKN049 23/20 Q1020 NOSIG
Conditions at: FALE (DURBAN SHAKA , ZA) observed 1400 UTC 22 March 2019
Temperature: 23.0°C (73°F)
Dewpoint: 20.0°C (68°F) [RH = 83%]
Pressure (altimeter): 30.12 inches Hg (1020.0 mb)
Winds: from the NE (40 degrees) at 7 MPH (6 knots; 3.1 m/s)
Visibility: 6 or more miles (10+ km)
Ceiling: 4900 feet AGL
Clouds: scattered clouds at 1000 feet AGL
broken clouds at 4900 feet AGL
Weather: no significant weather observed at this time

METAR text: FALE 221300Z 03007KT 010V080 9999 SCT010 BKN032 23/20 Q1020 NOSIG
Conditions at: FALE (DURBAN SHAKA , ZA) observed 1300 UTC 22 March 2019
Temperature: 23.0°C (73°F)
Dewpoint: 20.0°C (68°F) [RH = 83%]
Pressure (altimeter): 30.12 inches Hg (1020.0 mb)
Winds: from the NNE (30 degrees) at 8 MPH (7 knots; 3.6 m/s)
Visibility: 6 or more miles (10+ km)
Ceiling: 3200 feet AGL
Clouds: scattered clouds at 1000 feet AGL
broken clouds at 3200 feet AGL
Weather: no significant weather observed at this time

METAR text: FALE 221200Z 07005KT 020V110 9999 SCT009 BKN032 23/21 Q1021 NOSIG
Conditions at: FALE (DURBAN SHAKA , ZA) observed 1200 UTC 22 March 2019
Temperature: 23.0°C (73°F)
Dewpoint: 21.0°C (70°F) [RH = 89%]
Pressure (altimeter): 30.15 inches Hg (1021.0 mb)
Winds: from the ENE (70 degrees) at 6 MPH (5 knots; 2.6 m/s)
Visibility: 6 or more miles (10+ km)
Ceiling: 3200 feet AGL
Clouds: scattered clouds at 900 feet AGL
broken clouds at 3200 feet AGL
Weather: no significant weather observed at this time

METAR text: FALE 221100Z 09004KT 040V130 9999 BKN009 22/20 Q1021 NOSIG
Conditions at: FALE (DURBAN SHAKA , ZA) observed 1100 UTC 22 March 2019
Temperature: 22.0°C (72°F)
Dewpoint: 20.0°C (68°F) [RH = 88%]
Pressure (altimeter): 30.15 inches Hg (1021.0 mb)
Winds: from the E (90 degrees) at 5 MPH (4 knots; 2.1 m/s)
Visibility: 6 or more miles (10+ km)
Ceiling: 900 feet AGL
Clouds: broken clouds at 900 feet AGL
Weather: no significant weather observed at this time

METAR text: FALE 221021Z VRB02KT 9999 BKN007 23/20 Q1021 NOSIG
Conditions at: FALE (DURBAN SHAKA , ZA) observed 1021 UTC 22 March 2019
Temperature: 23.0°C (73°F)
Dewpoint: 20.0°C (68°F) [RH = 83%]
Pressure (altimeter): 30.15 inches Hg (1021.0 mb)
Winds: variable direction winds at 2 MPH (2 knots; 1.0 m/s)
Visibility: 6 or more miles (10+ km)
Ceiling: 700 feet AGL
Clouds: broken clouds at 700 feet AGL
Weather: no significant weather observed at this time

METAR text: FALE 221000Z 12004KT 070V170 9999 BKN006 OVC030 21/20 Q1022 NOSIG
Conditions at: FALE (DURBAN SHAKA , ZA) observed 1000 UTC 22 March 2019
Temperature: 21.0°C (70°F)
Dewpoint: 20.0°C (68°F) [RH = 94%]
Pressure (altimeter): 30.18 inches Hg (1022.0 mb)
Winds: from the ESE (120 degrees) at 5 MPH (4 knots; 2.1 m/s)
Visibility: 6 or more miles (10+ km)
Ceiling: 600 feet AGL
Clouds: broken clouds at 600 feet AGL
overcast cloud deck at 3000 feet AGL
Weather: no significant weather observed at this time

METAR text: FALE 220955Z 12004KT 070V170 9999 BKN006 OVC030 21/20 Q1022 NOSIG
Conditions at: FALE (DURBAN SHAKA , ZA) observed 0955 UTC 22 March 2019
Temperature: 21.0°C (70°F)
Dewpoint: 20.0°C (68°F) [RH = 94%]
Pressure (altimeter): 30.18 inches Hg (1022.0 mb)
Winds: from the ESE (120 degrees) at 5 MPH (4 knots; 2.1 m/s)
Visibility: 6 or more miles (10+ km)
Ceiling: 600 feet AGL
Clouds: broken clouds at 600 feet AGL
overcast cloud deck at 3000 feet AGL
Weather: no significant weather observed at this time

METAR text: FALE 220900Z 13004KT 090V170 9999 -RA SCT006 BKN030 OVC040 21/20 Q1022 NOSIG
Conditions at: FALE (DURBAN SHAKA , ZA) observed 0900 UTC 22 March 2019
Temperature: 21.0°C (70°F)
Dewpoint: 20.0°C (68°F) [RH = 94%]
Pressure (altimeter): 30.18 inches Hg (1022.0 mb)
Winds: from the SE (130 degrees) at 5 MPH (4 knots; 2.1 m/s)
Visibility: 6 or more miles (10+ km)
Ceiling: 3000 feet AGL
Clouds: scattered clouds at 600 feet AGL
broken clouds at 3000 feet AGL
overcast cloud deck at 4000 feet AGL
Weather: -RA  (light rain)

METAR text: FALE 220851Z 13004KT 090V170 9999 -RA SCT006 BKN030 OVC040 21/20 Q1022 NOSIG
Conditions at: FALE (DURBAN SHAKA , ZA) observed 0851 UTC 22 March 2019
Temperature: 21.0°C (70°F)
Dewpoint: 20.0°C (68°F) [RH = 94%]
Pressure (altimeter): 30.18 inches Hg (1022.0 mb)
Winds: from the SE (130 degrees) at 5 MPH (4 knots; 2.1 m/s)
Visibility: 6 or more miles (10+ km)
Ceiling: 3000 feet AGL
Clouds: scattered clouds at 600 feet AGL
broken clouds at 3000 feet AGL
overcast cloud deck at 4000 feet AGL
Weather: -RA  (light rain)

METAR text: FALE 220828Z 12003KT 070V180 8000 -RA BKN006 BKN012 OVC030 22/20 Q1022 NOSIG
Conditions at: FALE (DURBAN SHAKA , ZA) observed 0828 UTC 22 March 2019
Temperature: 22.0°C (72°F)
Dewpoint: 20.0°C (68°F) [RH = 88%]
Pressure (altimeter): 30.18 inches Hg (1022.0 mb)
Winds: from the ESE (120 degrees) at 3 MPH (3 knots; 1.5 m/s)
Visibility: 5 miles ( 8 km)
Ceiling: 600 feet AGL
Clouds: broken clouds at 600 feet AGL
broken clouds at 1200 feet AGL
overcast cloud deck at 3000 feet AGL
Weather: -RA  (light rain)

METAR text: FALE 220800Z 19003KT 130V250 9000 -RA SCT005 BKN012 OVC030 21/20 Q1022 NOSIG
Conditions at: FALE (DURBAN SHAKA , ZA) observed 0800 UTC 22 March 2019
Temperature: 21.0°C (70°F)
Dewpoint: 20.0°C (68°F) [RH = 94%]
Pressure (altimeter): 30.18 inches Hg (1022.0 mb)
Winds: from the S (190 degrees) at 3 MPH (3 knots; 1.5 m/s)
Visibility: 6 miles ( 9 km)
Ceiling: 1200 feet AGL
Clouds: scattered clouds at 500 feet AGL
broken clouds at 1200 feet AGL
overcast cloud deck at 3000 feet AGL
Weather: -RA  (light rain)

METAR text: FALE 220755Z 20003KT 130V290 9000 -RA SCT005 BKN012 OVC030 21/20 Q1022 RERA NOSIG
Conditions at: FALE (DURBAN SHAKA , ZA) observed 0755 UTC 22 March 2019
Temperature: 21.0°C (70°F)
Dewpoint: 20.0°C (68°F) [RH = 94%]
Pressure (altimeter): 30.18 inches Hg (1022.0 mb)
Winds: from the SSW (200 degrees) at 3 MPH (3 knots; 1.5 m/s)
Visibility: 6 miles ( 9 km)
Ceiling: 1200 feet AGL
Clouds: scattered clouds at 500 feet AGL
broken clouds at 1200 feet AGL
overcast cloud deck at 3000 feet AGL
Weather: -RA  (light rain)

METAR text: FALE 220740Z VRB02KT 9999 SCT002 BKN020 21/20 Q1022 NOSIG
Conditions at: FALE (DURBAN SHAKA , ZA) observed 0740 UTC 22 March 2019
Temperature: 21.0°C (70°F)
Dewpoint: 20.0°C (68°F) [RH = 94%]
Pressure (altimeter): 30.18 inches Hg (1022.0 mb)
Winds: variable direction winds at 2 MPH (2 knots; 1.0 m/s)
Visibility: 6 or more miles (10+ km)
Ceiling: 2000 feet AGL
Clouds: scattered clouds at 200 feet AGL
broken clouds at 2000 feet AGL
Weather: no significant weather observed at this time

METAR text: FALE 220721Z 27004KT 240V300 6000 -RA FEW003 BKN008 OVC030 21/20 Q1021 RERA NOSIG
Conditions at: FALE (DURBAN SHAKA , ZA) observed 0721 UTC 22 March 2019
Temperature: 21.0°C (70°F)
Dewpoint: 20.0°C (68°F) [RH = 94%]
Pressure (altimeter): 30.15 inches Hg (1021.0 mb)
Winds: from the W (270 degrees) at 5 MPH (4 knots; 2.1 m/s)
Visibility: 4 miles ( 6 km)
Ceiling: 800 feet AGL
Clouds: few clouds at 300 feet AGL
broken clouds at 800 feet AGL
overcast cloud deck at 3000 feet AGL
Weather: -RA  (light rain)

METAR text: FALE 220700Z VRB02KT 1800 R24/1100VP2000U R06/2000U +RA SCT003 BKN008 OVC020 20/19 Q1022 NOSIG
Conditions at: FALE (DURBAN SHAKA , ZA) observed 0700 UTC 22 March 2019
Temperature: 20.0°C (68°F)
Dewpoint: 19.0°C (66°F) [RH = 94%]
Pressure (altimeter): 30.18 inches Hg (1022.0 mb)
Winds: variable direction winds at 2 MPH (2 knots; 1.0 m/s)
Visibility: 1.12 miles (1.80 km)
Ceiling: 800 feet AGL
Clouds: scattered clouds at 300 feet AGL
broken clouds at 800 feet AGL
overcast cloud deck at 2000 feet AGL
Weather: +RA  (heavy rain)

METAR text: FALE 220654Z VRB02KT 1800 R24/1100VP2000U R06/2000U +RA SCT003 BKN008 OVC020 20/19 Q1022 NOSIG
Conditions at: FALE (DURBAN SHAKA , ZA) observed 0654 UTC 22 March 2019
Temperature: 20.0°C (68°F)
Dewpoint: 19.0°C (66°F) [RH = 94%]
Pressure (altimeter): 30.18 inches Hg (1022.0 mb)
Winds: variable direction winds at 2 MPH (2 knots; 1.0 m/s)
Visibility: 1.12 miles (1.80 km)
Ceiling: 800 feet AGL
Clouds: scattered clouds at 300 feet AGL
broken clouds at 800 feet AGL
overcast cloud deck at 2000 feet AGL
Weather: +RA  (heavy rain)

METAR text: FALE 220600Z 09003KT 050V130 2000 RA SCT003 BKN008 OVC020 20/19 Q1021 NOSIG
Conditions at: FALE (DURBAN SHAKA , ZA) observed 0600 UTC 22 March 2019
Temperature: 20.0°C (68°F)
Dewpoint: 19.0°C (66°F) [RH = 94%]
Pressure (altimeter): 30.15 inches Hg (1021.0 mb)
Winds: from the E (90 degrees) at 3 MPH (3 knots; 1.5 m/s)
Visibility: 1.24 miles (2.00 km)
Ceiling: 800 feet AGL
Clouds: scattered clouds at 300 feet AGL
broken clouds at 800 feet AGL
overcast cloud deck at 2000 feet AGL
Weather: RA  (moderate rain)

METAR text: FALE 220535Z 10007KT 060V140 2500 +RA SCT003 BKN008 OVC020 20/19 Q1021 NOSIG
Conditions at: FALE (DURBAN SHAKA , ZA) observed 0535 UTC 22 March 2019
Temperature: 20.0°C (68°F)
Dewpoint: 19.0°C (66°F) [RH = 94%]
Pressure (altimeter): 30.15 inches Hg (1021.0 mb)
Winds: from the E (100 degrees) at 8 MPH (7 knots; 3.6 m/s)
Visibility: 1.55 miles (2.49 km)
Ceiling: 800 feet AGL
Clouds: scattered clouds at 300 feet AGL
broken clouds at 800 feet AGL
overcast cloud deck at 2000 feet AGL
Weather: +RA  (heavy rain)

METAR text: FALE 220500Z 19008KT 3500 RA FEW005 BKN013 OVC030 20/19 Q1020 NOSIG
Conditions at: FALE (DURBAN SHAKA , ZA) observed 0500 UTC 22 March 2019
Temperature: 20.0°C (68°F)
Dewpoint: 19.0°C (66°F) [RH = 94%]
Pressure (altimeter): 30.12 inches Hg (1020.0 mb)
Winds: from the S (190 degrees) at 9 MPH (8 knots; 4.1 m/s)
Visibility: 2.17 miles (3.49 km)
Ceiling: 1300 feet AGL
Clouds: few clouds at 500 feet AGL
broken clouds at 1300 feet AGL
overcast cloud deck at 3000 feet AGL
Weather: RA  (moderate rain)

METAR text: FALE 220400Z 18007KT 4000 RA SCT005 OVC011 20/19 Q1019 NOSIG
Conditions at: FALE (DURBAN SHAKA , ZA) observed 0400 UTC 22 March 2019
Temperature: 20.0°C (68°F)
Dewpoint: 19.0°C (66°F) [RH = 94%]
Pressure (altimeter): 30.09 inches Hg (1019.0 mb)
Winds: from the S (180 degrees) at 8 MPH (7 knots; 3.6 m/s)
Visibility: 2.49 miles (4.01 km)
Ceiling: 1100 feet AGL
Clouds: scattered clouds at 500 feet AGL
overcast cloud deck at 1100 feet AGL
Weather: RA  (moderate rain)

METAR text: FALE 220352Z 18007KT 4000 RA SCT005 OVC011 20/19 Q1019 NOSIG
Conditions at: FALE (DURBAN SHAKA , ZA) observed 0352 UTC 22 March 2019
Temperature: 20.0°C (68°F)
Dewpoint: 19.0°C (66°F) [RH = 94%]
Pressure (altimeter): 30.09 inches Hg (1019.0 mb)
Winds: from the S (180 degrees) at 8 MPH (7 knots; 3.6 m/s)
Visibility: 2.49 miles (4.01 km)
Ceiling: 1100 feet AGL
Clouds: scattered clouds at 500 feet AGL
overcast cloud deck at 1100 feet AGL
Weather: RA  (moderate rain)

METAR text: FALE 220300Z 19007KT 150V210 7000 -RA SCT003 SCT005 OVC007 20/19 Q1019 NOSIG
Conditions at: FALE (DURBAN SHAKA , ZA) observed 0300 UTC 22 March 2019
Temperature: 20.0°C (68°F)
Dewpoint: 19.0°C (66°F) [RH = 94%]
Pressure (altimeter): 30.09 inches Hg (1019.0 mb)
Winds: from the S (190 degrees) at 8 MPH (7 knots; 3.6 m/s)
Visibility: 4 miles ( 7 km)
Ceiling: 700 feet AGL
Clouds: scattered clouds at 300 feet AGL
scattered clouds at 500 feet AGL
overcast cloud deck at 700 feet AGL
Weather: -RA  (light rain)

METAR text: FALE 220254Z 19008KT 150V220 7000 DZ SCT003 SCT005 OVC007 20/19 Q1019 NOSIG
Conditions at: FALE (DURBAN SHAKA , ZA) observed 0254 UTC 22 March 2019
Temperature: 20.0°C (68°F)
Dewpoint: 19.0°C (66°F) [RH = 94%]
Pressure (altimeter): 30.09 inches Hg (1019.0 mb)
Winds: from the S (190 degrees) at 9 MPH (8 knots; 4.1 m/s)
Visibility: 4 miles ( 7 km)
Ceiling: 700 feet AGL
Clouds: scattered clouds at 300 feet AGL
scattered clouds at 500 feet AGL
overcast cloud deck at 700 feet AGL
Weather: DZ  (moderate drizzle)

METAR text: FALE 220219Z 20009KT 3000 RA OVC004 20/19 Q1019 NOSIG
Conditions at: FALE (DURBAN SHAKA , ZA) observed 0219 UTC 22 March 2019
Temperature: 20.0°C (68°F)
Dewpoint: 19.0°C (66°F) [RH = 94%]
Pressure (altimeter): 30.09 inches Hg (1019.0 mb)
Winds: from the SSW (200 degrees) at 10 MPH (9 knots; 4.6 m/s)
Visibility: 1.86 miles (2.99 km)
Ceiling: 400 feet AGL
Clouds: overcast cloud deck at 400 feet AGL
Weather: RA  (moderate rain)

METAR text: FALE 220200Z 18005KT 130V220 4000 +RA BKN003 BKN005 OVC016 20/19 Q1019 NOSIG
Conditions at: FALE (DURBAN SHAKA , ZA) observed 0200 UTC 22 March 2019
Temperature: 20.0°C (68°F)
Dewpoint: 19.0°C (66°F) [RH = 94%]
Pressure (altimeter): 30.09 inches Hg (1019.0 mb)
Winds: from the S (180 degrees) at 6 MPH (5 knots; 2.6 m/s)
Visibility: 2.49 miles (4.01 km)
Ceiling: 300 feet AGL
Clouds: broken clouds at 300 feet AGL
broken clouds at 500 feet AGL
overcast cloud deck at 1600 feet AGL
Weather: +RA  (heavy rain)

METAR text: FALE 220158Z 18005KT 130V220 4000 +RA BKN003 BKN006 OVC017 20/19 Q1019 NOSIG
Conditions at: FALE (DURBAN SHAKA , ZA) observed 0158 UTC 22 March 2019
Temperature: 20.0°C (68°F)
Dewpoint: 19.0°C (66°F) [RH = 94%]
Pressure (altimeter): 30.09 inches Hg (1019.0 mb)
Winds: from the S (180 degrees) at 6 MPH (5 knots; 2.6 m/s)
Visibility: 2.49 miles (4.01 km)
Ceiling: 300 feet AGL
Clouds: broken clouds at 300 feet AGL
broken clouds at 600 feet AGL
overcast cloud deck at 1700 feet AGL
Weather: +RA  (heavy rain)

METAR text: FALE 220137Z 21008KT 2000 R24/P2000N R06/1100VP2000D +RA FEW003 BKN007 OVC012 20/19 Q1019 NOSIG
Conditions at: FALE (DURBAN SHAKA , ZA) observed 0137 UTC 22 March 2019
Temperature: 20.0°C (68°F)
Dewpoint: 19.0°C (66°F) [RH = 94%]
Pressure (altimeter): 30.09 inches Hg (1019.0 mb)
Winds: from the SSW (210 degrees) at 9 MPH (8 knots; 4.1 m/s)
Visibility: 1.24 miles (2.00 km)
Ceiling: 700 feet AGL
Clouds: few clouds at 300 feet AGL
broken clouds at 700 feet AGL
overcast cloud deck at 1200 feet AGL
Weather: +RA  (heavy rain)

METAR text: FALE 220116Z 20008KT 3000 RA SCT003 BKN005 OVC008 20/19 Q1019 NOSIG
Conditions at: FALE (DURBAN SHAKA , ZA) observed 0116 UTC 22 March 2019
Temperature: 20.0°C (68°F)
Dewpoint: 19.0°C (66°F) [RH = 94%]
Pressure (altimeter): 30.09 inches Hg (1019.0 mb)
Winds: from the SSW (200 degrees) at 9 MPH (8 knots; 4.1 m/s)
Visibility: 1.86 miles (2.99 km)
Ceiling: 500 feet AGL
Clouds: scattered clouds at 300 feet AGL
broken clouds at 500 feet AGL
overcast cloud deck at 800 feet AGL
Weather: RA  (moderate rain)

METAR text: FALE 220100Z 20009KT 4500 -RA BKN003 BKN014 OVC016 20/19 Q1019 NOSIG
Conditions at: FALE (DURBAN SHAKA , ZA) observed 0100 UTC 22 March 2019
Temperature: 20.0°C (68°F)
Dewpoint: 19.0°C (66°F) [RH = 94%]
Pressure (altimeter): 30.09 inches Hg (1019.0 mb)
Winds: from the SSW (200 degrees) at 10 MPH (9 knots; 4.6 m/s)
Visibility: 2.80 miles (4.51 km)
Ceiling: 300 feet AGL
Clouds: broken clouds at 300 feet AGL
broken clouds at 1400 feet AGL
overcast cloud deck at 1600 feet AGL
Weather: -RA  (light rain)

METAR text: FALE 220052Z 20009KT 4500 -RA BKN003 BKN014 OVC016 20/19 Q1019 RERA NOSIG
Conditions at: FALE (DURBAN SHAKA , ZA) observed 0052 UTC 22 March 2019
Temperature: 20.0°C (68°F)
Dewpoint: 19.0°C (66°F) [RH = 94%]
Pressure (altimeter): 30.09 inches Hg (1019.0 mb)
Winds: from the SSW (200 degrees) at 10 MPH (9 knots; 4.6 m/s)
Visibility: 2.80 miles (4.51 km)
Ceiling: 300 feet AGL
Clouds: broken clouds at 300 feet AGL
broken clouds at 1400 feet AGL
overcast cloud deck at 1600 feet AGL
Weather: -RA  (light rain)

METAR text: FALE 220021Z 21006KT 4500 RA SCT003 BKN007 OVC016 21/20 Q1019 NOSIG
Conditions at: FALE (DURBAN SHAKA , ZA) observed 0021 UTC 22 March 2019
Temperature: 21.0°C (70°F)
Dewpoint: 20.0°C (68°F) [RH = 94%]
Pressure (altimeter): 30.09 inches Hg (1019.0 mb)
Winds: from the SSW (210 degrees) at 7 MPH (6 knots; 3.1 m/s)
Visibility: 2.80 miles (4.51 km)
Ceiling: 700 feet AGL
Clouds: scattered clouds at 300 feet AGL
broken clouds at 700 feet AGL
overcast cloud deck at 1600 feet AGL
Weather: RA  (moderate rain)

METAR text: FALE 220015Z 21006KT 4500 -RA SCT003 BKN016 OVC023 21/20 Q1019 NOSIG
Conditions at: FALE (DURBAN SHAKA , ZA) observed 0015 UTC 22 March 2019
Temperature: 21.0°C (70°F)
Dewpoint: 20.0°C (68°F) [RH = 94%]
Pressure (altimeter): 30.09 inches Hg (1019.0 mb)
Winds: from the SSW (210 degrees) at 7 MPH (6 knots; 3.1 m/s)
Visibility: 2.80 miles (4.51 km)
Ceiling: 1600 feet AGL
Clouds: scattered clouds at 300 feet AGL
broken clouds at 1600 feet AGL
overcast cloud deck at 2300 feet AGL
Weather: -RA  (light rain)

METAR text: FALE 220000Z 18006KT 9999 -RA SCT004 BKN032 OVC049 21/20 Q1019 NOSIG
Conditions at: FALE (DURBAN SHAKA , ZA) observed 0000 UTC 22 March 2019
Temperature: 21.0°C (70°F)
Dewpoint: 20.0°C (68°F) [RH = 94%]
Pressure (altimeter): 30.09 inches Hg (1019.0 mb)
Winds: from the S (180 degrees) at 7 MPH (6 knots; 3.1 m/s)
Visibility: 6 or more miles (10+ km)
Ceiling: 3200 feet AGL
Clouds: scattered clouds at 400 feet AGL
broken clouds at 3200 feet AGL
overcast cloud deck at 4900 feet AGL
Weather: -RA  (light rain)

METAR text: FALE 212351Z 18006KT 9999 -RA SCT004 BKN032 OVC049 21/20 Q1019 NOSIG
Conditions at: FALE (DURBAN SHAKA , ZA) observed 2351 UTC 21 March 2019
Temperature: 21.0°C (70°F)
Dewpoint: 20.0°C (68°F) [RH = 94%]
Pressure (altimeter): 30.09 inches Hg (1019.0 mb)
Winds: from the S (180 degrees) at 7 MPH (6 knots; 3.1 m/s)
Visibility: 6 or more miles (10+ km)
Ceiling: 3200 feet AGL
Clouds: scattered clouds at 400 feet AGL
broken clouds at 3200 feet AGL
overcast cloud deck at 4900 feet AGL
Weather: -RA  (light rain)

METAR text: FALE 212324Z 18010KT 140V200 6000 -RA SCT003 OVC009 21/20 Q1019 NOSIG
Conditions at: FALE (DURBAN SHAKA , ZA) observed 2324 UTC 21 March 2019
Temperature: 21.0°C (70°F)
Dewpoint: 20.0°C (68°F) [RH = 94%]
Pressure (altimeter): 30.09 inches Hg (1019.0 mb)
Winds: from the S (180 degrees) at 12 MPH (10 knots; 5.1 m/s)
Visibility: 4 miles ( 6 km)
Ceiling: 900 feet AGL
Clouds: scattered clouds at 300 feet AGL
overcast cloud deck at 900 feet AGL
Weather: -RA  (light rain)

METAR text: FALE 212314Z 16009KT 3000 RA OVC003 21/20 Q1019 NOSIG
Conditions at: FALE (DURBAN SHAKA , ZA) observed 2314 UTC 21 March 2019
Temperature: 21.0°C (70°F)
Dewpoint: 20.0°C (68°F) [RH = 94%]
Pressure (altimeter): 30.09 inches Hg (1019.0 mb)
Winds: from the SSE (160 degrees) at 10 MPH (9 knots; 4.6 m/s)
Visibility: 1.86 miles (2.99 km)
Ceiling: 300 feet AGL
Clouds: overcast cloud deck at 300 feet AGL
Weather: RA  (moderate rain)

METAR text: FALE 212308Z 16009KT 5000 RA BKN003 OVC010 21/20 Q1019 NOSIG
Conditions at: FALE (DURBAN SHAKA , ZA) observed 2308 UTC 21 March 2019
Temperature: 21.0°C (70°F)
Dewpoint: 20.0°C (68°F) [RH = 94%]
Pressure (altimeter): 30.09 inches Hg (1019.0 mb)
Winds: from the SSE (160 degrees) at 10 MPH (9 knots; 4.6 m/s)
Visibility: 3 miles ( 5 km)
Ceiling: 300 feet AGL
Clouds: broken clouds at 300 feet AGL
overcast cloud deck at 1000 feet AGL
Weather: RA  (moderate rain)

METAR text: FALE 212302Z 16010KT 4000 RA BKN003 BKN009 OVC013 21/20 Q1019 NOSIG
Conditions at: FALE (DURBAN SHAKA , ZA) observed 2302 UTC 21 March 2019
Temperature: 21.0°C (70°F)
Dewpoint: 20.0°C (68°F) [RH = 94%]
Pressure (altimeter): 30.09 inches Hg (1019.0 mb)
Winds: from the SSE (160 degrees) at 12 MPH (10 knots; 5.1 m/s)
Visibility: 2.49 miles (4.01 km)
Ceiling: 300 feet AGL
Clouds: broken clouds at 300 feet AGL
broken clouds at 900 feet AGL
overcast cloud deck at 1300 feet AGL
Weather: RA  (moderate rain)

METAR text: FALE 212300Z 15010KT 6000 -RA BKN003 BKN009 OVC013 21/20 Q1019 NOSIG
Conditions at: FALE (DURBAN SHAKA , ZA) observed 2300 UTC 21 March 2019
Temperature: 21.0°C (70°F)
Dewpoint: 20.0°C (68°F) [RH = 94%]
Pressure (altimeter): 30.09 inches Hg (1019.0 mb)
Winds: from the SSE (150 degrees) at 12 MPH (10 knots; 5.1 m/s)
Visibility: 4 miles ( 6 km)
Ceiling: 300 feet AGL
Clouds: broken clouds at 300 feet AGL
broken clouds at 900 feet AGL
overcast cloud deck at 1300 feet AGL
Weather: -RA  (light rain)

METAR text: FALE 212235Z 19007KT 7000 -RA BKN004 OVC010 21/20 Q1019 NOSIG
Conditions at: FALE (DURBAN SHAKA , ZA) observed 2235 UTC 21 March 2019
Temperature: 21.0°C (70°F)
Dewpoint: 20.0°C (68°F) [RH = 94%]
Pressure (altimeter): 30.09 inches Hg (1019.0 mb)
Winds: from the S (190 degrees) at 8 MPH (7 knots; 3.6 m/s)
Visibility: 4 miles ( 7 km)
Ceiling: 400 feet AGL
Clouds: broken clouds at 400 feet AGL
overcast cloud deck at 1000 feet AGL
Weather: -RA  (light rain)

METAR text: FALE 212213Z 19012KT 5000 -RA BKN007 BKN018 OVC040 21/19 Q1019 NOSIG
Conditions at: FALE (DURBAN SHAKA , ZA) observed 2213 UTC 21 March 2019
Temperature: 21.0°C (70°F)
Dewpoint: 19.0°C (66°F) [RH = 88%]
Pressure (altimeter): 30.09 inches Hg (1019.0 mb)
Winds: from the S (190 degrees) at 14 MPH (12 knots; 6.2 m/s)
Visibility: 3 miles ( 5 km)
Ceiling: 700 feet AGL
Clouds: broken clouds at 700 feet AGL
broken clouds at 1800 feet AGL
overcast cloud deck at 4000 feet AGL
Weather: -RA  (light rain)

METAR text: FALE 212200Z 20013KT 9999 -RA FEW014 BKN017 OVC036 21/19 Q1018 NOSIG
Conditions at: FALE (DURBAN SHAKA , ZA) observed 2200 UTC 21 March 2019
Temperature: 21.0°C (70°F)
Dewpoint: 19.0°C (66°F) [RH = 88%]
Pressure (altimeter): 30.06 inches Hg (1018.0 mb)
Winds: from the SSW (200 degrees) at 15 MPH (13 knots; 6.7 m/s)
Visibility: 6 or more miles (10+ km)
Ceiling: 1700 feet AGL
Clouds: few clouds at 1400 feet AGL
broken clouds at 1700 feet AGL
overcast cloud deck at 3600 feet AGL
Weather: -RA  (light rain)

METAR text: FALE 212100Z 19009KT 9999 BKN019 OVC030 22/19 Q1018 NOSIG
Conditions at: FALE (DURBAN SHAKA , ZA) observed 2100 UTC 21 March 2019
Temperature: 22.0°C (72°F)
Dewpoint: 19.0°C (66°F) [RH = 83%]
Pressure (altimeter): 30.06 inches Hg (1018.0 mb)
Winds: from the S (190 degrees) at 10 MPH (9 knots; 4.6 m/s)
Visibility: 6 or more miles (10+ km)
Ceiling: 1900 feet AGL
Clouds: broken clouds at 1900 feet AGL
overcast cloud deck at 3000 feet AGL
Weather: no significant weather observed at this time

METAR text: FALE 212000Z 20008KT 9999 SCT019 OVC022 21/19 Q1018 NOSIG
Conditions at: FALE (DURBAN SHAKA , ZA) observed 2000 UTC 21 March 2019
Temperature: 21.0°C (70°F)
Dewpoint: 19.0°C (66°F) [RH = 88%]
Pressure (altimeter): 30.06 inches Hg (1018.0 mb)
Winds: from the SSW (200 degrees) at 9 MPH (8 knots; 4.1 m/s)
Visibility: 6 or more miles (10+ km)
Ceiling: 2200 feet AGL
Clouds: scattered clouds at 1900 feet AGL
overcast cloud deck at 2200 feet AGL
Weather: no significant weather observed at this time

METAR text: FALE 211923Z 20006KT 9999 SCT015 OVC018 21/20 Q1018 NOSIG
Conditions at: FALE (DURBAN SHAKA , ZA) observed 1923 UTC 21 March 2019
Temperature: 21.0°C (70°F)
Dewpoint: 20.0°C (68°F) [RH = 94%]
Pressure (altimeter): 30.06 inches Hg (1018.0 mb)
Winds: from the SSW (200 degrees) at 7 MPH (6 knots; 3.1 m/s)
Visibility: 6 or more miles (10+ km)
Ceiling: 1800 feet AGL
Clouds: scattered clouds at 1500 feet AGL
overcast cloud deck at 1800 feet AGL
Weather: no significant weather observed at this time

METAR text: FALE 211900Z 21004KT 9000 -RA SCT013 OVC015 21/20 Q1018 NOSIG
Conditions at: FALE (DURBAN SHAKA , ZA) observed 1900 UTC 21 March 2019
Temperature: 21.0°C (70°F)
Dewpoint: 20.0°C (68°F) [RH = 94%]
Pressure (altimeter): 30.06 inches Hg (1018.0 mb)
Winds: from the SSW (210 degrees) at 5 MPH (4 knots; 2.1 m/s)
Visibility: 6 miles ( 9 km)
Ceiling: 1500 feet AGL
Clouds: scattered clouds at 1300 feet AGL
overcast cloud deck at 1500 feet AGL
Weather: -RA  (light rain)

METAR text: FALE 211842Z 18004KT 150V210 6000 -RA SCT013 OVC015 21/20 Q1018 NOSIG
Conditions at: FALE (DURBAN SHAKA , ZA) observed 1842 UTC 21 March 2019
Temperature: 21.0°C (70°F)
Dewpoint: 20.0°C (68°F) [RH = 94%]
Pressure (altimeter): 30.06 inches Hg (1018.0 mb)
Winds: from the S (180 degrees) at 5 MPH (4 knots; 2.1 m/s)
Visibility: 4 miles ( 6 km)
Ceiling: 1500 feet AGL
Clouds: scattered clouds at 1300 feet AGL
overcast cloud deck at 1500 feet AGL
Weather: -RA  (light rain)

METAR text: FALE 211800Z 19008KT 9000 SCT012 OVC019 22/20 Q1017 NOSIG
Conditions at: FALE (DURBAN SHAKA , ZA) observed 1800 UTC 21 March 2019
Temperature: 22.0°C (72°F)
Dewpoint: 20.0°C (68°F) [RH = 88%]
Pressure (altimeter): 30.03 inches Hg (1017.0 mb)
Winds: from the S (190 degrees) at 9 MPH (8 knots; 4.1 m/s)
Visibility: 6 miles ( 9 km)
Ceiling: 1900 feet AGL
Clouds: scattered clouds at 1200 feet AGL
overcast cloud deck at 1900 feet AGL
Weather: no significant weather observed at this time

METAR text: FALE 211756Z 19009KT 9000 SCT012 OVC019 22/20 Q1017 NOSIG
Conditions at: FALE (DURBAN SHAKA , ZA) observed 1756 UTC 21 March 2019
Temperature: 22.0°C (72°F)
Dewpoint: 20.0°C (68°F) [RH = 88%]
Pressure (altimeter): 30.03 inches Hg (1017.0 mb)
Winds: from the S (190 degrees) at 10 MPH (9 knots; 4.6 m/s)
Visibility: 6 miles ( 9 km)
Ceiling: 1900 feet AGL
Clouds: scattered clouds at 1200 feet AGL
overcast cloud deck at 1900 feet AGL
Weather: no significant weather observed at this time

METAR text: FALE 211731Z 18006KT 150V220 6000 -RA FEW006 BKN009 OVC015 22/21 Q1017 NOSIG
Conditions at: FALE (DURBAN SHAKA , ZA) observed 1731 UTC 21 March 2019
Temperature: 22.0°C (72°F)
Dewpoint: 21.0°C (70°F) [RH = 94%]
Pressure (altimeter): 30.03 inches Hg (1017.0 mb)
Winds: from the S (180 degrees) at 7 MPH (6 knots; 3.1 m/s)
Visibility: 4 miles ( 6 km)
Ceiling: 900 feet AGL
Clouds: few clouds at 600 feet AGL
broken clouds at 900 feet AGL
overcast cloud deck at 1500 feet AGL
Weather: -RA  (light rain)

METAR text: FALE 211712Z 18007KT 6000 -RA FEW010 BKN013 BKN020 22/21 Q1016 NOSIG
Conditions at: FALE (DURBAN SHAKA , ZA) observed 1712 UTC 21 March 2019
Temperature: 22.0°C (72°F)
Dewpoint: 21.0°C (70°F) [RH = 94%]
Pressure (altimeter): 30.00 inches Hg (1016.0 mb)
Winds: from the S (180 degrees) at 8 MPH (7 knots; 3.6 m/s)
Visibility: 4 miles ( 6 km)
Ceiling: 1300 feet AGL
Clouds: few clouds at 1000 feet AGL
broken clouds at 1300 feet AGL
broken clouds at 2000 feet AGL
Weather: -RA  (light rain)

METAR text: FALE 211700Z 19008KT 6000 -RA SCT015 OVC022 22/20 Q1016 NOSIG
Conditions at: FALE (DURBAN SHAKA , ZA) observed 1700 UTC 21 March 2019
Temperature: 22.0°C (72°F)
Dewpoint: 20.0°C (68°F) [RH = 88%]
Pressure (altimeter): 30.00 inches Hg (1016.0 mb)
Winds: from the S (190 degrees) at 9 MPH (8 knots; 4.1 m/s)
Visibility: 4 miles ( 6 km)
Ceiling: 2200 feet AGL
Clouds: scattered clouds at 1500 feet AGL
overcast cloud deck at 2200 feet AGL
Weather: -RA  (light rain)

METAR text: FALE 211626Z 19009KT 9000 SCT006 BKN019 OVC030 22/21 Q1016 NOSIG
Conditions at: FALE (DURBAN SHAKA , ZA) observed 1626 UTC 21 March 2019
Temperature: 22.0°C (72°F)
Dewpoint: 21.0°C (70°F) [RH = 94%]
Pressure (altimeter): 30.00 inches Hg (1016.0 mb)
Winds: from the S (190 degrees) at 10 MPH (9 knots; 4.6 m/s)
Visibility: 6 miles ( 9 km)
Ceiling: 1900 feet AGL
Clouds: scattered clouds at 600 feet AGL
broken clouds at 1900 feet AGL
overcast cloud deck at 3000 feet AGL
Weather: no significant weather observed at this time

METAR text: FALE 211600Z 18007KT 7000 -RA BKN008 OVC030 22/21 Q1015 NOSIG
Conditions at: FALE (DURBAN SHAKA , ZA) observed 1600 UTC 21 March 2019
Temperature: 22.0°C (72°F)
Dewpoint: 21.0°C (70°F) [RH = 94%]
Pressure (altimeter): 29.97 inches Hg (1015.0 mb)
Winds: from the S (180 degrees) at 8 MPH (7 knots; 3.6 m/s)
Visibility: 4 miles ( 7 km)
Ceiling: 800 feet AGL
Clouds: broken clouds at 800 feet AGL
overcast cloud deck at 3000 feet AGL
Weather: -RA  (light rain)

METAR text: FALE 211557Z 18007KT 7000 -RA BKN008 OVC030 22/21 Q1015 NOSIG
Conditions at: FALE (DURBAN SHAKA , ZA) observed 1557 UTC 21 March 2019
Temperature: 22.0°C (72°F)
Dewpoint: 21.0°C (70°F) [RH = 94%]
Pressure (altimeter): 29.97 inches Hg (1015.0 mb)
Winds: from the S (180 degrees) at 8 MPH (7 knots; 3.6 m/s)
Visibility: 4 miles ( 7 km)
Ceiling: 800 feet AGL
Clouds: broken clouds at 800 feet AGL
overcast cloud deck at 3000 feet AGL
Weather: -RA  (light rain)

METAR text: FALE 211500Z 17006KT 9000 FEW014 BKN024 OVC030 23/21 Q1015 NOSIG
Conditions at: FALE (DURBAN SHAKA , ZA) observed 1500 UTC 21 March 2019
Temperature: 23.0°C (73°F)
Dewpoint: 21.0°C (70°F) [RH = 89%]
Pressure (altimeter): 29.97 inches Hg (1015.0 mb)
Winds: from the S (170 degrees) at 7 MPH (6 knots; 3.1 m/s)
Visibility: 6 miles ( 9 km)
Ceiling: 2400 feet AGL
Clouds: few clouds at 1400 feet AGL
broken clouds at 2400 feet AGL
overcast cloud deck at 3000 feet AGL
Weather: no significant weather observed at this time

METAR text: FALE 211400Z 14005KT 100V170 9999 FEW008 SCT023 OVC030 23/21 Q1014 NOSIG
Conditions at: FALE (DURBAN SHAKA , ZA) observed 1400 UTC 21 March 2019
Temperature: 23.0°C (73°F)
Dewpoint: 21.0°C (70°F) [RH = 89%]
Pressure (altimeter): 29.94 inches Hg (1014.0 mb)
Winds: from the SE (140 degrees) at 6 MPH (5 knots; 2.6 m/s)
Visibility: 6 or more miles (10+ km)
Ceiling: 3000 feet AGL
Clouds: few clouds at 800 feet AGL
scattered clouds at 2300 feet AGL
overcast cloud deck at 3000 feet AGL
Weather: no significant weather observed at this time

METAR text: FALE 211300Z 18008KT 9999 FEW020 OVC030 24/20 Q1014 NOSIG
Conditions at: FALE (DURBAN SHAKA , ZA) observed 1300 UTC 21 March 2019
Temperature: 24.0°C (75°F)
Dewpoint: 20.0°C (68°F) [RH = 78%]
Pressure (altimeter): 29.94 inches Hg (1014.0 mb)
Winds: from the S (180 degrees) at 9 MPH (8 knots; 4.1 m/s)
Visibility: 6 or more miles (10+ km)
Ceiling: 3000 feet AGL
Clouds: few clouds at 2000 feet AGL
overcast cloud deck at 3000 feet AGL
Weather: no significant weather observed at this time

Forecast for: FALE (DURBAN SHAKA , ZA)
Text: TAF FALE 222200Z 2300/2406 VRB03KT 9999 SCT040 TX28/2312Z TN20/2304Z
Forecast period: 0000 to 0900 UTC 23 March 2019
Forecast type: FROM: standard forecast or significant change
Winds: variable direction winds at 3 MPH (3 knots; 1.5 m/s)
Visibility: 6 or more miles 10+ km)
Ceiling: at least 12,000 feet AGL
Clouds: scattered clouds at 4000 feet AGL
Weather: no significant weather forecast for this period
Text: FM230900 04017KT 9999 SCT030
Forecast period: 0900 to 2200 UTC 23 March 2019
Forecast type: FROM: standard forecast or significant change
Winds: from the NE (40 degrees) at 20 MPH (17 knots; 8.7 m/s)
Visibility: 6 or more miles 10+ km)
Ceiling: at least 12,000 feet AGL
Clouds: scattered clouds at 3000 feet AGL
Weather: no significant weather forecast for this period
Text: PROB30
Forecast period: 1800 to 2200 UTC 23 March 2019
Forecast type: TEMPORARY: The following changes expected for less than half the time period
Visibility: 3 miles (5 km)
Ceiling: 2000 feet AGL
Clouds: broken clouds at 2000 feet AGL
few clouds at 3500 feet AGL
Weather: TSRA  (rain associated with thunderstorm(s))
Text: TEMPO 2318/2322 5000 TSRA BKN020 FEW035CB
Forecast period: 2200 UTC 23 March 2019 to 0600 UTC 24 March 2019
Forecast type: BECOMING: Conditions expected to become as follows by 0000 UTC 24 March 2019
Winds: from the NE (40 degrees) at 20 MPH (17 knots; 8.7 m/s)
Visibility: 6 or more miles 10+ km)
Ceiling: unknown
Clouds: missing
Weather: NSW  (no significant weather)